sensor_id;sensor_type;location;lat;lon;timestamp;temperature;humidity
16511;DHT22;8368;48.772;8.754;2023-01-15T00:00:46;9.00;99.90
16511;DHT22;8368;48.772;8.754;2023-01-15T00:03:11;9.10;99.90
16511;DHT22;8368;48.772;8.754;2023-01-15T00:05:37;9.00;99.90
16511;DHT22;8368;48.772;8.754;2023-01-15T00:08:03;9.10;99.90
16511;DHT22;8368;48.772;8.754;2023-01-15T00:10:28;9.00;99.90
16511;DHT22;8368;48.772;8.754;2023-01-15T00:12:54;9.00;99.90
16511;DHT22;8368;48.772;8.754;2023-01-15T00:15:20;9.00;99.90
16511;DHT22;8368;48.772;8.754;2023-01-15T00:17:45;9.00;99.90
16511;DHT22;8368;48.772;8.754;2023-01-15T00:20:11;9.10;99.90
16511;DHT22;8368;48.772;8.754;2023-01-15T00:22:37;9.00;99.90
16511;DHT22;8368;48.772;8.754;2023-01-15T00:25:03;9.10;99.90
16511;DHT22;8368;48.772;8.754;2023-01-15T00:27:48;9.00;99.90
16511;DHT22;8368;48.772;8.754;2023-01-15T00:30:15;9.10;99.90
16511;DHT22;8368;48.772;8.754;2023-01-15T00:32:42;9.20;99.90
16511;DHT22;8368;48.772;8.754;2023-01-15T00:35:17;9.20;99.90
16511;DHT22;8368;48.772;8.754;2023-01-15T00:37:43;9.10;99.90
16511;DHT22;8368;48.772;8.754;2023-01-15T00:40:09;9.20;99.90
16511;DHT22;8368;48.772;8.754;2023-01-15T00:42:35;9.20;99.90
16511;DHT22;8368;48.772;8.754;2023-01-15T00:45:00;9.20;99.90
16511;DHT22;8368;48.772;8.754;2023-01-15T00:47:38;9.20;99.90
16511;DHT22;8368;48.772;8.754;2023-01-15T00:50:05;9.20;99.90
16511;DHT22;8368;48.772;8.754;2023-01-15T00:52:32;9.20;99.90
16511;DHT22;8368;48.772;8.754;2023-01-15T00:54:57;9.20;99.90
16511;DHT22;8368;48.772;8.754;2023-01-15T00:57:23;9.20;99.90
16511;DHT22;8368;48.772;8.754;2023-01-15T00:59:49;9.20;99.90
16511;DHT22;8368;48.772;8.754;2023-01-15T01:02:14;9.20;99.90
16511;DHT22;8368;48.772;8.754;2023-01-15T01:04:40;9.20;99.90
16511;DHT22;8368;48.772;8.754;2023-01-15T01:07:05;9.30;99.90
16511;DHT22;8368;48.772;8.754;2023-01-15T01:09:31;9.30;99.90
16511;DHT22;8368;48.772;8.754;2023-01-15T01:11:56;9.40;99.90
16511;DHT22;8368;48.772;8.754;2023-01-15T01:14:22;9.40;99.90
16511;DHT22;8368;48.772;8.754;2023-01-15T01:16:47;9.40;99.90
16511;DHT22;8368;48.772;8.754;2023-01-15T01:19:19;9.40;99.90
16511;DHT22;8368;48.772;8.754;2023-01-15T01:21:45;9.40;99.90
16511;DHT22;8368;48.772;8.754;2023-01-15T01:24:13;9.40;99.90
16511;DHT22;8368;48.772;8.754;2023-01-15T01:26:39;9.50;99.90
16511;DHT22;8368;48.772;8.754;2023-01-15T01:29:05;9.40;99.90
16511;DHT22;8368;48.772;8.754;2023-01-15T01:31:31;9.50;99.90
16511;DHT22;8368;48.772;8.754;2023-01-15T01:33:58;9.50;99.90
16511;DHT22;8368;48.772;8.754;2023-01-15T01:36:29;9.50;99.90
16511;DHT22;8368;48.772;8.754;2023-01-15T01:38:55;9.40;99.90
16511;DHT22;8368;48.772;8.754;2023-01-15T01:41:21;9.40;99.90
16511;DHT22;8368;48.772;8.754;2023-01-15T01:43:57;9.40;99.90
16511;DHT22;8368;48.772;8.754;2023-01-15T01:46:24;9.40;99.90
16511;DHT22;8368;48.772;8.754;2023-01-15T01:48:54;9.40;99.90
16511;DHT22;8368;48.772;8.754;2023-01-15T01:51:25;9.40;99.90
16511;DHT22;8368;48.772;8.754;2023-01-15T01:53:52;9.40;99.90
16511;DHT22;8368;48.772;8.754;2023-01-15T01:56:17;9.40;99.90
16511;DHT22;8368;48.772;8.754;2023-01-15T01:58:47;9.40;99.90
16511;DHT22;8368;48.772;8.754;2023-01-15T02:01:14;9.40;99.90
16511;DHT22;8368;48.772;8.754;2023-01-15T02:03:40;9.40;99.90
16511;DHT22;8368;48.772;8.754;2023-01-15T02:06:08;9.40;99.90
16511;DHT22;8368;48.772;8.754;2023-01-15T02:08:34;9.40;99.90
16511;DHT22;8368;48.772;8.754;2023-01-15T02:11:00;9.30;99.90
16511;DHT22;8368;48.772;8.754;2023-01-15T02:13:40;9.30;99.90
16511;DHT22;8368;48.772;8.754;2023-01-15T02:16:22;9.30;99.90
16511;DHT22;8368;48.772;8.754;2023-01-15T02:18:59;9.30;99.90
16511;DHT22;8368;48.772;8.754;2023-01-15T02:21:50;9.40;99.90
16511;DHT22;8368;48.772;8.754;2023-01-15T02:24:26;9.40;99.90
16511;DHT22;8368;48.772;8.754;2023-01-15T02:27:11;9.40;99.90
16511;DHT22;8368;48.772;8.754;2023-01-15T02:30:03;9.40;99.90
16511;DHT22;8368;48.772;8.754;2023-01-15T02:32:35;9.40;99.90
16511;DHT22;8368;48.772;8.754;2023-01-15T02:35:07;9.40;99.90
16511;DHT22;8368;48.772;8.754;2023-01-15T02:37:38;9.40;99.90
16511;DHT22;8368;48.772;8.754;2023-01-15T02:40:06;9.40;99.90
16511;DHT22;8368;48.772;8.754;2023-01-15T02:42:33;9.40;99.90
16511;DHT22;8368;48.772;8.754;2023-01-15T02:45:02;9.40;99.90
16511;DHT22;8368;48.772;8.754;2023-01-15T02:47:32;9.40;99.90
16511;DHT22;8368;48.772;8.754;2023-01-15T02:50:04;9.40;99.90
16511;DHT22;8368;48.772;8.754;2023-01-15T02:52:37;9.30;99.90
16511;DHT22;8368;48.772;8.754;2023-01-15T02:55:10;9.30;99.90
16511;DHT22;8368;48.772;8.754;2023-01-15T02:57:38;9.30;99.90
16511;DHT22;8368;48.772;8.754;2023-01-15T03:00:08;9.30;99.90
16511;DHT22;8368;48.772;8.754;2023-01-15T03:02:40;9.30;99.90
16511;DHT22;8368;48.772;8.754;2023-01-15T03:05:26;9.40;99.90
16511;DHT22;8368;48.772;8.754;2023-01-15T03:07:56;9.40;99.90
16511;DHT22;8368;48.772;8.754;2023-01-15T03:13:18;9.40;99.90
16511;DHT22;8368;48.772;8.754;2023-01-15T03:16:09;9.40;99.90
16511;DHT22;8368;48.772;8.754;2023-01-15T03:22:06;9.40;99.90
16511;DHT22;8368;48.772;8.754;2023-01-15T03:24:37;9.50;99.90
16511;DHT22;8368;48.772;8.754;2023-01-15T03:27:04;9.50;99.90
16511;DHT22;8368;48.772;8.754;2023-01-15T03:29:33;9.50;99.90
16511;DHT22;8368;48.772;8.754;2023-01-15T03:32:00;9.40;99.90
16511;DHT22;8368;48.772;8.754;2023-01-15T03:34:33;9.40;99.90
16511;DHT22;8368;48.772;8.754;2023-01-15T03:36:59;9.40;99.90
16511;DHT22;8368;48.772;8.754;2023-01-15T03:39:25;9.40;99.90
16511;DHT22;8368;48.772;8.754;2023-01-15T03:45:11;9.50;99.90
16511;DHT22;8368;48.772;8.754;2023-01-15T03:50:24;9.50;99.90
16511;DHT22;8368;48.772;8.754;2023-01-15T03:55:43;9.50;99.90
16511;DHT22;8368;48.772;8.754;2023-01-15T03:58:55;9.50;99.90
16511;DHT22;8368;48.772;8.754;2023-01-15T04:00:57;9.40;99.90
16511;DHT22;8368;48.772;8.754;2023-01-15T04:03:26;9.40;99.90
16511;DHT22;8368;48.772;8.754;2023-01-15T04:05:55;9.40;99.90
16511;DHT22;8368;48.772;8.754;2023-01-15T04:08:22;9.40;99.90
16511;DHT22;8368;48.772;8.754;2023-01-15T04:10:59;9.40;99.90
16511;DHT22;8368;48.772;8.754;2023-01-15T04:13:25;9.40;99.90
16511;DHT22;8368;48.772;8.754;2023-01-15T04:15:51;9.40;99.90
16511;DHT22;8368;48.772;8.754;2023-01-15T04:18:18;9.30;99.90
16511;DHT22;8368;48.772;8.754;2023-01-15T04:20:43;9.30;99.90
16511;DHT22;8368;48.772;8.754;2023-01-15T04:23:09;9.40;99.90
16511;DHT22;8368;48.772;8.754;2023-01-15T04:25:35;9.40;99.90
16511;DHT22;8368;48.772;8.754;2023-01-15T04:28:01;9.40;99.90
16511;DHT22;8368;48.772;8.754;2023-01-15T04:30:26;9.40;99.90
16511;DHT22;8368;48.772;8.754;2023-01-15T04:32:52;9.30;99.90
16511;DHT22;8368;48.772;8.754;2023-01-15T04:35:18;9.30;99.90
16511;DHT22;8368;48.772;8.754;2023-01-15T04:37:44;9.30;99.90
16511;DHT22;8368;48.772;8.754;2023-01-15T04:40:10;9.30;99.90
16511;DHT22;8368;48.772;8.754;2023-01-15T04:42:56;9.40;99.90
16511;DHT22;8368;48.772;8.754;2023-01-15T04:45:42;9.30;99.90
16511;DHT22;8368;48.772;8.754;2023-01-15T04:48:08;9.30;99.90
16511;DHT22;8368;48.772;8.754;2023-01-15T04:50:34;9.30;99.90
16511;DHT22;8368;48.772;8.754;2023-01-15T04:52:59;9.30;99.90
16511;DHT22;8368;48.772;8.754;2023-01-15T04:55:25;9.30;99.90
16511;DHT22;8368;48.772;8.754;2023-01-15T04:57:50;9.30;99.90
16511;DHT22;8368;48.772;8.754;2023-01-15T05:00:16;9.30;99.90
16511;DHT22;8368;48.772;8.754;2023-01-15T05:02:42;9.20;99.90
16511;DHT22;8368;48.772;8.754;2023-01-15T05:05:08;8.80;99.90
16511;DHT22;8368;48.772;8.754;2023-01-15T05:07:33;8.50;99.90
16511;DHT22;8368;48.772;8.754;2023-01-15T05:09:59;8.10;99.90
16511;DHT22;8368;48.772;8.754;2023-01-15T05:12:24;7.80;99.90
16511;DHT22;8368;48.772;8.754;2023-01-15T05:14:50;7.70;99.90
16511;DHT22;8368;48.772;8.754;2023-01-15T05:17:16;7.60;99.90
16511;DHT22;8368;48.772;8.754;2023-01-15T05:19:42;7.40;99.90
16511;DHT22;8368;48.772;8.754;2023-01-15T05:22:07;7.20;99.90
16511;DHT22;8368;48.772;8.754;2023-01-15T05:24:34;7.00;99.90
16511;DHT22;8368;48.772;8.754;2023-01-15T05:26:59;6.90;99.90
16511;DHT22;8368;48.772;8.754;2023-01-15T05:29:25;6.80;99.90
16511;DHT22;8368;48.772;8.754;2023-01-15T05:31:50;6.70;99.90
16511;DHT22;8368;48.772;8.754;2023-01-15T05:34:16;6.60;99.90
16511;DHT22;8368;48.772;8.754;2023-01-15T05:36:41;6.60;99.90
16511;DHT22;8368;48.772;8.754;2023-01-15T05:39:07;6.50;99.90
16511;DHT22;8368;48.772;8.754;2023-01-15T05:41:33;6.50;99.90
16511;DHT22;8368;48.772;8.754;2023-01-15T05:44:25;6.40;99.90
16511;DHT22;8368;48.772;8.754;2023-01-15T05:46:54;6.40;99.90
16511;DHT22;8368;48.772;8.754;2023-01-15T05:49:22;6.40;99.90
16511;DHT22;8368;48.772;8.754;2023-01-15T05:51:48;6.30;99.90
16511;DHT22;8368;48.772;8.754;2023-01-15T05:54:20;6.30;99.90
16511;DHT22;8368;48.772;8.754;2023-01-15T05:56:46;6.20;99.90
16511;DHT22;8368;48.772;8.754;2023-01-15T05:59:14;6.20;99.90
16511;DHT22;8368;48.772;8.754;2023-01-15T06:01:40;6.20;99.90
16511;DHT22;8368;48.772;8.754;2023-01-15T06:04:06;6.20;99.90
16511;DHT22;8368;48.772;8.754;2023-01-15T06:06:33;6.20;99.90
16511;DHT22;8368;48.772;8.754;2023-01-15T06:08:59;6.10;99.90
16511;DHT22;8368;48.772;8.754;2023-01-15T06:11:25;6.10;99.90
16511;DHT22;8368;48.772;8.754;2023-01-15T06:13:51;6.00;99.90
16511;DHT22;8368;48.772;8.754;2023-01-15T06:16:17;6.00;99.90
16511;DHT22;8368;48.772;8.754;2023-01-15T06:18:43;5.90;99.90
16511;DHT22;8368;48.772;8.754;2023-01-15T06:21:10;5.80;99.90
16511;DHT22;8368;48.772;8.754;2023-01-15T06:23:37;5.70;99.90
16511;DHT22;8368;48.772;8.754;2023-01-15T06:26:10;5.70;99.90
16511;DHT22;8368;48.772;8.754;2023-01-15T06:28:36;5.60;99.90
16511;DHT22;8368;48.772;8.754;2023-01-15T06:31:06;5.60;99.90
16511;DHT22;8368;48.772;8.754;2023-01-15T06:33:32;5.50;99.90
16511;DHT22;8368;48.772;8.754;2023-01-15T06:35:57;5.50;99.90
16511;DHT22;8368;48.772;8.754;2023-01-15T06:38:23;5.40;99.90
16511;DHT22;8368;48.772;8.754;2023-01-15T06:40:48;5.40;99.90
16511;DHT22;8368;48.772;8.754;2023-01-15T06:43:14;5.40;99.90
16511;DHT22;8368;48.772;8.754;2023-01-15T06:45:58;5.30;99.90
16511;DHT22;8368;48.772;8.754;2023-01-15T06:48:49;5.20;99.90
16511;DHT22;8368;48.772;8.754;2023-01-15T06:51:15;5.20;99.90
16511;DHT22;8368;48.772;8.754;2023-01-15T06:53:45;5.10;99.90
16511;DHT22;8368;48.772;8.754;2023-01-15T06:56:14;5.10;99.90
16511;DHT22;8368;48.772;8.754;2023-01-15T06:58:43;5.00;99.90
16511;DHT22;8368;48.772;8.754;2023-01-15T07:01:10;5.00;99.90
16511;DHT22;8368;48.772;8.754;2023-01-15T07:03:36;4.90;99.90
16511;DHT22;8368;48.772;8.754;2023-01-15T07:06:09;4.90;99.90
16511;DHT22;8368;48.772;8.754;2023-01-15T07:08:36;4.80;99.90
16511;DHT22;8368;48.772;8.754;2023-01-15T07:11:06;4.80;99.90
16511;DHT22;8368;48.772;8.754;2023-01-15T07:13:33;4.70;99.90
16511;DHT22;8368;48.772;8.754;2023-01-15T07:16:00;4.70;99.90
16511;DHT22;8368;48.772;8.754;2023-01-15T07:18:26;4.60;99.90
16511;DHT22;8368;48.772;8.754;2023-01-15T07:20:56;4.60;99.90
16511;DHT22;8368;48.772;8.754;2023-01-15T07:23:23;4.60;99.90
16511;DHT22;8368;48.772;8.754;2023-01-15T07:25:51;4.50;99.90
16511;DHT22;8368;48.772;8.754;2023-01-15T07:28:17;4.50;99.90
16511;DHT22;8368;48.772;8.754;2023-01-15T07:30:43;4.40;99.90
16511;DHT22;8368;48.772;8.754;2023-01-15T07:33:08;4.40;99.90
16511;DHT22;8368;48.772;8.754;2023-01-15T07:35:34;4.40;99.90
16511;DHT22;8368;48.772;8.754;2023-01-15T07:38:01;4.40;99.90
16511;DHT22;8368;48.772;8.754;2023-01-15T07:40:27;4.30;99.90
16511;DHT22;8368;48.772;8.754;2023-01-15T07:42:52;4.30;99.90
16511;DHT22;8368;48.772;8.754;2023-01-15T07:45:38;4.30;99.90
16511;DHT22;8368;48.772;8.754;2023-01-15T07:48:23;4.30;99.90
16511;DHT22;8368;48.772;8.754;2023-01-15T07:51:08;4.30;99.90
16511;DHT22;8368;48.772;8.754;2023-01-15T07:53:34;4.30;99.90
16511;DHT22;8368;48.772;8.754;2023-01-15T07:55:59;4.30;99.90
16511;DHT22;8368;48.772;8.754;2023-01-15T07:58:25;4.30;99.90
16511;DHT22;8368;48.772;8.754;2023-01-15T08:00:51;4.30;99.90
16511;DHT22;8368;48.772;8.754;2023-01-15T08:03:16;4.30;99.90
16511;DHT22;8368;48.772;8.754;2023-01-15T08:05:42;4.20;99.90
16511;DHT22;8368;48.772;8.754;2023-01-15T08:08:16;4.20;99.90
16511;DHT22;8368;48.772;8.754;2023-01-15T08:10:42;4.20;99.90
16511;DHT22;8368;48.772;8.754;2023-01-15T08:13:26;4.20;99.90
16511;DHT22;8368;48.772;8.754;2023-01-15T08:16:10;4.20;99.90
16511;DHT22;8368;48.772;8.754;2023-01-15T08:18:37;4.20;99.90
16511;DHT22;8368;48.772;8.754;2023-01-15T08:21:02;4.20;99.90
16511;DHT22;8368;48.772;8.754;2023-01-15T08:23:28;4.20;99.90
16511;DHT22;8368;48.772;8.754;2023-01-15T08:25:53;4.20;99.90
16511;DHT22;8368;48.772;8.754;2023-01-15T08:28:19;4.20;99.90
16511;DHT22;8368;48.772;8.754;2023-01-15T08:30:44;4.20;99.90
16511;DHT22;8368;48.772;8.754;2023-01-15T08:33:10;4.20;99.90
16511;DHT22;8368;48.772;8.754;2023-01-15T08:35:35;4.10;99.90
16511;DHT22;8368;48.772;8.754;2023-01-15T08:38:10;4.10;99.90
16511;DHT22;8368;48.772;8.754;2023-01-15T08:40:36;4.20;99.90
16511;DHT22;8368;48.772;8.754;2023-01-15T08:43:21;4.20;99.90
16511;DHT22;8368;48.772;8.754;2023-01-15T08:45:47;4.10;99.90
16511;DHT22;8368;48.772;8.754;2023-01-15T08:48:12;4.10;99.90
16511;DHT22;8368;48.772;8.754;2023-01-15T08:50:38;4.10;99.90
16511;DHT22;8368;48.772;8.754;2023-01-15T08:53:03;4.10;99.90
16511;DHT22;8368;48.772;8.754;2023-01-15T08:55:29;4.00;99.90
16511;DHT22;8368;48.772;8.754;2023-01-15T08:57:54;4.00;99.90
16511;DHT22;8368;48.772;8.754;2023-01-15T09:00:20;4.00;99.90
16511;DHT22;8368;48.772;8.754;2023-01-15T09:02:46;4.00;99.90
16511;DHT22;8368;48.772;8.754;2023-01-15T09:05:11;4.00;99.90
16511;DHT22;8368;48.772;8.754;2023-01-15T09:07:37;4.00;99.90
16511;DHT22;8368;48.772;8.754;2023-01-15T09:10:02;4.00;99.90
16511;DHT22;8368;48.772;8.754;2023-01-15T09:12:28;4.00;99.90
16511;DHT22;8368;48.772;8.754;2023-01-15T09:14:54;4.00;99.90
16511;DHT22;8368;48.772;8.754;2023-01-15T09:17:20;3.90;99.90
16511;DHT22;8368;48.772;8.754;2023-01-15T09:19:46;3.90;99.90
16511;DHT22;8368;48.772;8.754;2023-01-15T09:22:12;3.90;99.90
16511;DHT22;8368;48.772;8.754;2023-01-15T09:24:37;3.90;99.90
16511;DHT22;8368;48.772;8.754;2023-01-15T09:27:03;3.80;99.90
16511;DHT22;8368;48.772;8.754;2023-01-15T09:29:29;3.80;99.90
16511;DHT22;8368;48.772;8.754;2023-01-15T09:31:54;3.80;99.90
16511;DHT22;8368;48.772;8.754;2023-01-15T09:34:20;3.80;99.90
16511;DHT22;8368;48.772;8.754;2023-01-15T09:36:45;3.70;99.90
16511;DHT22;8368;48.772;8.754;2023-01-15T09:39:11;3.60;99.90
16511;DHT22;8368;48.772;8.754;2023-01-15T09:44:46;3.60;99.90
16511;DHT22;8368;48.772;8.754;2023-01-15T09:47:38;3.60;99.90
16511;DHT22;8368;48.772;8.754;2023-01-15T09:50:33;3.60;99.90
16511;DHT22;8368;48.772;8.754;2023-01-15T09:55:48;3.70;99.90
16511;DHT22;8368;48.772;8.754;2023-01-15T09:58:17;3.70;99.90
16511;DHT22;8368;48.772;8.754;2023-01-15T10:00:48;3.60;99.90
16511;DHT22;8368;48.772;8.754;2023-01-15T10:03:43;3.60;99.90
16511;DHT22;8368;48.772;8.754;2023-01-15T10:06:24;3.50;99.90
16511;DHT22;8368;48.772;8.754;2023-01-15T10:11:45;3.60;99.90
16511;DHT22;8368;48.772;8.754;2023-01-15T10:14:39;3.60;99.90
16511;DHT22;8368;48.772;8.754;2023-01-15T10:17:27;3.60;99.90
16511;DHT22;8368;48.772;8.754;2023-01-15T10:19:55;3.50;99.90
16511;DHT22;8368;48.772;8.754;2023-01-15T10:22:30;3.60;99.90
16511;DHT22;8368;48.772;8.754;2023-01-15T10:25:01;3.60;99.90
16511;DHT22;8368;48.772;8.754;2023-01-15T10:27:29;3.60;99.90
16511;DHT22;8368;48.772;8.754;2023-01-15T10:30:05;3.50;99.90
16511;DHT22;8368;48.772;8.754;2023-01-15T10:32:45;3.40;99.90
16511;DHT22;8368;48.772;8.754;2023-01-15T10:38:13;3.20;99.90
16511;DHT22;8368;48.772;8.754;2023-01-15T10:46:21;2.70;99.90
16511;DHT22;8368;48.772;8.754;2023-01-15T10:48:52;2.60;99.90
16511;DHT22;8368;48.772;8.754;2023-01-15T10:51:30;2.60;99.90
16511;DHT22;8368;48.772;8.754;2023-01-15T10:57:06;2.40;99.90
16511;DHT22;8368;48.772;8.754;2023-01-15T10:59:47;2.40;99.90
16511;DHT22;8368;48.772;8.754;2023-01-15T11:02:37;2.40;99.90
16511;DHT22;8368;48.772;8.754;2023-01-15T11:05:04;2.20;99.90
16511;DHT22;8368;48.772;8.754;2023-01-15T11:07:37;2.20;99.90
16511;DHT22;8368;48.772;8.754;2023-01-15T11:10:06;2.20;99.90
16511;DHT22;8368;48.772;8.754;2023-01-15T11:12:39;2.10;99.90
16511;DHT22;8368;48.772;8.754;2023-01-15T11:15:24;2.00;99.90
16511;DHT22;8368;48.772;8.754;2023-01-15T11:18:20;2.00;99.90
16511;DHT22;8368;48.772;8.754;2023-01-15T11:21:24;1.90;99.90
16511;DHT22;8368;48.772;8.754;2023-01-15T11:23:53;1.90;99.90
16511;DHT22;8368;48.772;8.754;2023-01-15T11:26:23;2.00;99.90
16511;DHT22;8368;48.772;8.754;2023-01-15T11:28:51;1.90;99.90
16511;DHT22;8368;48.772;8.754;2023-01-15T11:31:17;2.00;99.90
16511;DHT22;8368;48.772;8.754;2023-01-15T11:33:54;2.00;99.90
16511;DHT22;8368;48.772;8.754;2023-01-15T11:36:23;2.00;99.90
16511;DHT22;8368;48.772;8.754;2023-01-15T11:38:49;2.00;99.90
16511;DHT22;8368;48.772;8.754;2023-01-15T11:41:33;2.00;99.90
16511;DHT22;8368;48.772;8.754;2023-01-15T11:44:20;2.10;99.90
16511;DHT22;8368;48.772;8.754;2023-01-15T11:47:13;2.00;99.90
16511;DHT22;8368;48.772;8.754;2023-01-15T11:50:00;2.00;99.90
16511;DHT22;8368;48.772;8.754;2023-01-15T11:52:50;2.10;99.90
16511;DHT22;8368;48.772;8.754;2023-01-15T11:55:19;2.10;99.90
16511;DHT22;8368;48.772;8.754;2023-01-15T11:57:45;2.10;99.90
16511;DHT22;8368;48.772;8.754;2023-01-15T12:00:26;2.10;99.90
16511;DHT22;8368;48.772;8.754;2023-01-15T12:02:57;2.00;99.90
16511;DHT22;8368;48.772;8.754;2023-01-15T12:05:34;2.00;99.90
16511;DHT22;8368;48.772;8.754;2023-01-15T12:08:02;2.10;99.90
16511;DHT22;8368;48.772;8.754;2023-01-15T12:10:48;2.10;99.90
16511;DHT22;8368;48.772;8.754;2023-01-15T12:16:36;2.10;99.90
16511;DHT22;8368;48.772;8.754;2023-01-15T12:33:05;2.30;99.90
16511;DHT22;8368;48.772;8.754;2023-01-15T12:35:40;2.40;99.90
16511;DHT22;8368;48.772;8.754;2023-01-15T12:38:39;2.40;99.90
16511;DHT22;8368;48.772;8.754;2023-01-15T12:41:21;2.50;99.90
16511;DHT22;8368;48.772;8.754;2023-01-15T12:43:53;2.60;99.90
16511;DHT22;8368;48.772;8.754;2023-01-15T12:46:41;2.60;99.90
16511;DHT22;8368;48.772;8.754;2023-01-15T12:49:39;2.70;99.90
16511;DHT22;8368;48.772;8.754;2023-01-15T12:52:10;2.80;99.90
16511;DHT22;8368;48.772;8.754;2023-01-15T12:54:49;2.70;99.90
16511;DHT22;8368;48.772;8.754;2023-01-15T12:57:20;2.80;99.90
16511;DHT22;8368;48.772;8.754;2023-01-15T13:00:14;2.80;99.90
16511;DHT22;8368;48.772;8.754;2023-01-15T13:05:38;2.80;99.90
16511;DHT22;8368;48.772;8.754;2023-01-15T13:08:17;2.90;99.90
16511;DHT22;8368;48.772;8.754;2023-01-15T13:10:48;2.90;99.90
16511;DHT22;8368;48.772;8.754;2023-01-15T13:13:22;2.90;99.90
16511;DHT22;8368;48.772;8.754;2023-01-15T13:21:39;2.90;99.90
16511;DHT22;8368;48.772;8.754;2023-01-15T13:27:33;3.00;99.90
16511;DHT22;8368;48.772;8.754;2023-01-15T13:32:58;3.30;99.90
16511;DHT22;8368;48.772;8.754;2023-01-15T13:35:39;3.40;99.90
16511;DHT22;8368;48.772;8.754;2023-01-15T13:38:15;3.50;99.90
16511;DHT22;8368;48.772;8.754;2023-01-15T13:40:43;3.60;99.90
16511;DHT22;8368;48.772;8.754;2023-01-15T13:43:34;3.60;99.90
16511;DHT22;8368;48.772;8.754;2023-01-15T13:46:03;3.60;99.90
16511;DHT22;8368;48.772;8.754;2023-01-15T13:48:31;3.50;99.90
16511;DHT22;8368;48.772;8.754;2023-01-15T13:50:59;3.50;99.90
16511;DHT22;8368;48.772;8.754;2023-01-15T13:53:35;3.40;99.90
16511;DHT22;8368;48.772;8.754;2023-01-15T13:56:07;3.40;99.90
16511;DHT22;8368;48.772;8.754;2023-01-15T13:58:38;3.40;99.90
16511;DHT22;8368;48.772;8.754;2023-01-15T14:01:50;3.40;99.90
16511;DHT22;8368;48.772;8.754;2023-01-15T14:04:04;3.40;99.90
16511;DHT22;8368;48.772;8.754;2023-01-15T14:06:51;3.40;99.90
16511;DHT22;8368;48.772;8.754;2023-01-15T14:17:17;3.20;99.90
16511;DHT22;8368;48.772;8.754;2023-01-15T14:20:11;3.20;99.90
16511;DHT22;8368;48.772;8.754;2023-01-15T14:25:46;3.30;99.90
16511;DHT22;8368;48.772;8.754;2023-01-15T14:28:40;3.30;99.90
16511;DHT22;8368;48.772;8.754;2023-01-15T14:31:22;3.20;99.90
16511;DHT22;8368;48.772;8.754;2023-01-15T14:34:07;3.20;99.90
16511;DHT22;8368;48.772;8.754;2023-01-15T14:36:57;3.10;99.90
16511;DHT22;8368;48.772;8.754;2023-01-15T14:39:32;3.10;99.90
16511;DHT22;8368;48.772;8.754;2023-01-15T14:42:14;3.00;99.90
16511;DHT22;8368;48.772;8.754;2023-01-15T14:45:44;3.00;99.90
16511;DHT22;8368;48.772;8.754;2023-01-15T14:47:55;3.00;99.90
16511;DHT22;8368;48.772;8.754;2023-01-15T14:56:12;3.10;99.90
16511;DHT22;8368;48.772;8.754;2023-01-15T15:01:28;3.00;99.90
16511;DHT22;8368;48.772;8.754;2023-01-15T15:06:53;3.00;99.90
16511;DHT22;8368;48.772;8.754;2023-01-15T15:09:41;3.00;99.90
16511;DHT22;8368;48.772;8.754;2023-01-15T15:18:14;2.90;99.90
16511;DHT22;8368;48.772;8.754;2023-01-15T15:21:02;3.00;99.90
16511;DHT22;8368;48.772;8.754;2023-01-15T15:26:16;3.00;99.90
16511;DHT22;8368;48.772;8.754;2023-01-15T15:28:53;3.00;99.90
16511;DHT22;8368;48.772;8.754;2023-01-15T15:31:20;3.10;99.90
16511;DHT22;8368;48.772;8.754;2023-01-15T15:33:50;3.00;99.90
16511;DHT22;8368;48.772;8.754;2023-01-15T15:36:17;3.00;99.90
16511;DHT22;8368;48.772;8.754;2023-01-15T15:38:52;3.00;99.90
16511;DHT22;8368;48.772;8.754;2023-01-15T15:41:18;3.00;99.90
16511;DHT22;8368;48.772;8.754;2023-01-15T15:44:12;3.00;99.90
16511;DHT22;8368;48.772;8.754;2023-01-15T15:46:58;2.90;99.90
16511;DHT22;8368;48.772;8.754;2023-01-15T15:49:42;2.70;99.90
16511;DHT22;8368;48.772;8.754;2023-01-15T15:52:20;2.70;99.90
16511;DHT22;8368;48.772;8.754;2023-01-15T15:54:57;2.60;99.90
16511;DHT22;8368;48.772;8.754;2023-01-15T15:57:23;2.50;99.90
16511;DHT22;8368;48.772;8.754;2023-01-15T15:59:51;2.50;99.90
16511;DHT22;8368;48.772;8.754;2023-01-15T16:02:27;2.50;99.90
16511;DHT22;8368;48.772;8.754;2023-01-15T16:04:59;2.40;99.90
16511;DHT22;8368;48.772;8.754;2023-01-15T16:07:32;2.40;99.90
16511;DHT22;8368;48.772;8.754;2023-01-15T16:10:31;2.40;99.90
16511;DHT22;8368;48.772;8.754;2023-01-15T16:12:59;2.30;99.90
16511;DHT22;8368;48.772;8.754;2023-01-15T16:15:29;2.30;99.90
16511;DHT22;8368;48.772;8.754;2023-01-15T16:17:59;2.30;99.90
16511;DHT22;8368;48.772;8.754;2023-01-15T16:20:26;2.30;99.90
16511;DHT22;8368;48.772;8.754;2023-01-15T16:23:00;2.30;99.90
16511;DHT22;8368;48.772;8.754;2023-01-15T16:25:36;2.40;99.90
16511;DHT22;8368;48.772;8.754;2023-01-15T16:28:03;2.40;99.90
16511;DHT22;8368;48.772;8.754;2023-01-15T16:30:30;2.30;99.90
16511;DHT22;8368;48.772;8.754;2023-01-15T16:33:05;2.30;99.90
16511;DHT22;8368;48.772;8.754;2023-01-15T16:35:33;2.30;99.90
16511;DHT22;8368;48.772;8.754;2023-01-15T16:38:01;2.20;99.90
16511;DHT22;8368;48.772;8.754;2023-01-15T16:40:30;2.20;99.90
16511;DHT22;8368;48.772;8.754;2023-01-15T16:43:07;2.20;99.90
16511;DHT22;8368;48.772;8.754;2023-01-15T16:45:35;2.20;99.90
16511;DHT22;8368;48.772;8.754;2023-01-15T16:50:48;2.10;99.90
16511;DHT22;8368;48.772;8.754;2023-01-15T16:56:00;2.20;99.90
16511;DHT22;8368;48.772;8.754;2023-01-15T16:58:39;2.20;99.90
16511;DHT22;8368;48.772;8.754;2023-01-15T17:01:36;2.20;99.90
16511;DHT22;8368;48.772;8.754;2023-01-15T17:04:12;2.10;99.90
16511;DHT22;8368;48.772;8.754;2023-01-15T17:06:39;2.10;99.90
16511;DHT22;8368;48.772;8.754;2023-01-15T17:09:05;2.10;99.90
16511;DHT22;8368;48.772;8.754;2023-01-15T17:11:36;2.10;99.90
16511;DHT22;8368;48.772;8.754;2023-01-15T17:14:16;2.10;99.90
16511;DHT22;8368;48.772;8.754;2023-01-15T17:16:43;2.10;99.90
16511;DHT22;8368;48.772;8.754;2023-01-15T17:19:10;2.10;99.90
16511;DHT22;8368;48.772;8.754;2023-01-15T17:21:36;2.20;99.90
16511;DHT22;8368;48.772;8.754;2023-01-15T17:24:04;2.20;99.90
16511;DHT22;8368;48.772;8.754;2023-01-15T17:26:31;2.10;99.90
16511;DHT22;8368;48.772;8.754;2023-01-15T17:28:57;2.10;99.90
16511;DHT22;8368;48.772;8.754;2023-01-15T17:31:28;2.00;99.90
16511;DHT22;8368;48.772;8.754;2023-01-15T17:33:55;2.10;99.90
16511;DHT22;8368;48.772;8.754;2023-01-15T17:36:22;2.10;99.90
16511;DHT22;8368;48.772;8.754;2023-01-15T17:38:48;2.20;99.90
16511;DHT22;8368;48.772;8.754;2023-01-15T17:41:15;2.10;99.90
16511;DHT22;8368;48.772;8.754;2023-01-15T17:43:41;2.10;99.90
16511;DHT22;8368;48.772;8.754;2023-01-15T17:46:07;2.20;99.90
16511;DHT22;8368;48.772;8.754;2023-01-15T17:48:33;2.20;99.90
16511;DHT22;8368;48.772;8.754;2023-01-15T17:51:04;2.10;99.90
16511;DHT22;8368;48.772;8.754;2023-01-15T17:53:31;2.10;99.90
16511;DHT22;8368;48.772;8.754;2023-01-15T17:55:57;2.10;99.90
16511;DHT22;8368;48.772;8.754;2023-01-15T17:58:41;2.10;99.90
16511;DHT22;8368;48.772;8.754;2023-01-15T18:01:27;2.10;99.90
16511;DHT22;8368;48.772;8.754;2023-01-15T18:04:16;2.20;99.90
16511;DHT22;8368;48.772;8.754;2023-01-15T18:07:01;2.20;99.90
16511;DHT22;8368;48.772;8.754;2023-01-15T18:09:28;2.10;99.90
16511;DHT22;8368;48.772;8.754;2023-01-15T18:11:54;2.10;99.90
16511;DHT22;8368;48.772;8.754;2023-01-15T18:14:19;2.10;99.90